Time;durP1;ratioP1;P1;durP2;ratioP2;P2;SDS_P1;SDS_P2;PMS_P1;PMS_P2;Temp;Humidity;BMP_temperature;BMP_pressure;BME280_temperature;BME280_humidity;BME280_pressure;Samples;Min_cycle;Max_cycle;Signal;HPM_P1;HPM_P2
2021/08/29 00:00:23;;;;;;;4.45;2.78;;;13.70;99.90;;;;;;5045903;28;20021;-48
2021/08/29 00:02:49;;;;;;;3.20;2.42;;;13.70;99.90;;;;;;5048462;28;20399;-48
2021/08/29 00:05:15;;;;;;;4.05;2.42;;;13.70;99.90;;;;;;5046762;28;20040;-47
2021/08/29 00:07:40;;;;;;;4.32;2.70;;;13.80;99.90;;;;;;5043837;28;20021;-47
2021/08/29 00:10:07;;;;;;;4.20;2.53;;;13.70;99.90;;;;;;5046820;28;20025;-46
2021/08/29 00:12:33;;;;;;;3.53;3.22;;;13.70;99.90;;;;;;5042612;28;20502;-46
2021/08/29 00:14:58;;;;;;;4.15;2.30;;;13.70;99.90;;;;;;5048620;28;20040;-47
2021/08/29 00:17:24;;;;;;;3.20;2.45;;;13.70;99.90;;;;;;5049200;28;20032;-49
2021/08/29 00:19:49;;;;;;;5.72;2.60;;;13.70;99.90;;;;;;5041872;28;20025;-48
2021/08/29 00:22:16;;;;;;;5.20;2.80;;;13.70;99.90;;;;;;5045844;28;20021;-47
2021/08/29 00:24:41;;;;;;;4.18;3.10;;;13.80;99.90;;;;;;5048541;28;20021;-47
2021/08/29 00:27:07;;;;;;;4.97;2.60;;;13.80;99.90;;;;;;5045164;28;20028;-46
2021/08/29 00:29:32;;;;;;;3.67;2.88;;;13.70;99.90;;;;;;5043668;28;20021;-46
2021/08/29 00:31:58;;;;;;;4.85;2.92;;;13.70;99.90;;;;;;5044282;28;20024;-47
2021/08/29 00:34:24;;;;;;;4.63;2.85;;;13.70;99.90;;;;;;5041965;28;20025;-48
2021/08/29 00:36:49;;;;;;;4.43;3.13;;;13.80;99.90;;;;;;5042343;28;20632;-48
2021/08/29 00:39:15;;;;;;;5.28;2.97;;;13.70;99.90;;;;;;5046229;28;20446;-46
2021/08/29 00:41:42;;;;;;;6.40;3.40;;;13.70;99.90;;;;;;5048916;28;20025;-50
2021/08/29 00:44:08;;;;;;;3.58;3.13;;;13.80;99.90;;;;;;5044766;28;20028;-46
2021/08/29 00:46:34;;;;;;;3.47;2.95;;;13.70;99.90;;;;;;5047492;28;20430;-48
2021/08/29 00:49:00;;;;;;;4.93;3.40;;;13.70;99.90;;;;;;5043084;28;20092;-46
2021/08/29 00:51:26;;;;;;;4.20;2.78;;;13.70;99.90;;;;;;5040596;28;20045;-47
2021/08/29 00:53:55;;;;;;;3.72;2.63;;;13.80;99.90;;;;;;5039452;28;20053;-46
2021/08/29 00:56:22;;;;;;;5.63;3.00;;;13.70;99.90;;;;;;5032343;28;20484;-47
2021/08/29 00:58:49;;;;;;;3.55;3.25;;;13.70;99.90;;;;;;5045592;28;20025;-48
2021/08/29 01:01:20;;;;;;;5.22;3.63;;;13.70;99.90;;;;;;5042696;28;20032;-49
2021/08/29 01:03:47;;;;;;;3.92;3.13;;;13.70;99.90;;;;;;5045214;28;20017;-47
2021/08/29 01:06:31;;;;;;;5.72;3.90;;;13.70;99.90;;;;;;5040385;28;20531;-46
2021/08/29 01:09:02;;;;;;;5.47;3.03;;;13.70;99.90;;;;;;5046186;28;20564;-50
2021/08/29 01:11:28;;;;;;;5.95;3.70;;;13.70;99.90;;;;;;5043141;28;20033;-52
2021/08/29 01:14:03;;;;;;;4.18;3.50;;;13.70;99.90;;;;;;5045531;28;20448;-50
2021/08/29 01:16:32;;;;;;;5.15;3.10;;;13.70;99.90;;;;;;5034263;28;20240;-53
2021/08/29 01:19:00;;;;;;;4.10;3.30;;;13.70;99.90;;;;;;5041562;28;20017;-45
2021/08/29 01:21:28;;;;;;;5.57;3.10;;;13.70;99.90;;;;;;5040885;28;20014;-48
2021/08/29 01:24:01;;;;;;;4.95;3.75;;;13.70;99.90;;;;;;5047728;28;20476;-46
2021/08/29 01:26:31;;;;;;;3.97;3.58;;;13.70;99.90;;;;;;5032590;28;20403;-45
2021/08/29 01:29:00;;;;;;;5.97;3.47;;;13.70;99.90;;;;;;5042464;28;20025;-48
2021/08/29 01:31:29;;;;;;;6.50;3.67;;;13.70;99.90;;;;;;5044137;28;20021;-50
2021/08/29 01:34:02;;;;;;;4.85;3.60;;;13.70;99.90;;;;;;5039176;28;20017;-48
2021/08/29 01:36:30;;;;;;;5.18;3.88;;;13.70;99.90;;;;;;5029715;28;20131;-46
2021/08/29 01:38:57;;;;;;;6.35;2.83;;;13.70;99.90;;;;;;5044769;28;20108;-45
2021/08/29 01:41:24;;;;;;;6.05;3.53;;;13.70;99.90;;;;;;5047869;28;20440;-47
2021/08/29 01:43:51;;;;;;;3.50;3.00;;;13.70;99.90;;;;;;5044092;28;20074;-48
2021/08/29 01:46:18;;;;;;;4.60;3.05;;;13.70;99.90;;;;;;5046439;28;20045;-46
2021/08/29 01:48:45;;;;;;;3.88;3.17;;;13.70;99.90;;;;;;5043336;28;20018;-51
2021/08/29 01:51:11;;;;;;;5.50;3.35;;;13.70;99.90;;;;;;5044999;28;20025;-49
2021/08/29 01:53:39;;;;;;;3.95;2.90;;;13.70;99.90;;;;;;5042610;28;20043;-48
2021/08/29 01:56:05;;;;;;;3.55;2.92;;;13.70;99.90;;;;;;5044790;28;20430;-51
2021/08/29 01:58:31;;;;;;;5.05;3.38;;;13.70;99.90;;;;;;5047055;28;20022;-51
2021/08/29 02:00:59;;;;;;;6.43;3.53;;;13.60;99.90;;;;;;5044181;28;20023;-47
2021/08/29 02:03:26;;;;;;;3.60;3.05;;;13.60;99.90;;;;;;5047092;28;20457;-49
2021/08/29 02:06:05;;;;;;;6.20;3.67;;;13.60;99.90;;;;;;5043083;28;20495;-46
2021/08/29 02:08:31;;;;;;;6.63;3.47;;;13.70;99.90;;;;;;5034542;28;20025;-48
2021/08/29 02:10:58;;;;;;;7.05;3.22;;;13.60;99.90;;;;;;5041900;28;20024;-51
2021/08/29 02:13:26;;;;;;;5.68;3.20;;;13.70;99.90;;;;;;5044794;28;20025;-46
2021/08/29 02:15:58;;;;;;;6.05;3.10;;;13.70;99.90;;;;;;5041138;28;20033;-48
2021/08/29 02:18:25;;;;;;;3.78;3.33;;;13.70;99.90;;;;;;5039071;28;20037;-47
2021/08/29 02:20:52;;;;;;;4.97;3.22;;;13.70;99.90;;;;;;5048184;28;20024;-46
2021/08/29 02:23:20;;;;;;;4.53;2.95;;;13.70;99.90;;;;;;5050913;28;20021;-47
2021/08/29 02:25:47;;;;;;;3.35;2.78;;;13.70;99.90;;;;;;5046439;28;20045;-48
2021/08/29 02:28:14;;;;;;;4.55;2.63;;;13.60;99.90;;;;;;5041446;28;20025;-49
2021/08/29 02:30:41;;;;;;;4.35;3.03;;;13.60;99.90;;;;;;5051541;28;20021;-49
2021/08/29 02:33:08;;;;;;;3.08;2.72;;;13.60;99.90;;;;;;5045293;28;20025;-48
2021/08/29 02:35:34;;;;;;;4.28;2.83;;;13.60;99.90;;;;;;5049648;28;20021;-46
2021/08/29 02:38:01;;;;;;;4.03;2.42;;;13.60;99.90;;;;;;5045683;28;20029;-48
2021/08/29 02:40:31;;;;;;;3.08;2.78;;;13.60;99.90;;;;;;5049700;28;20025;-46
2021/08/29 02:42:56;;;;;;;4.63;2.45;;;13.60;99.90;;;;;;5045686;28;20058;-46
2021/08/29 02:45:24;;;;;;;3.90;2.40;;;13.60;99.90;;;;;;5047732;28;20033;-47
2021/08/29 02:47:50;;;;;;;4.55;2.45;;;13.70;99.90;;;;;;5047706;28;20024;-45
2021/08/29 02:50:16;;;;;;;3.67;2.63;;;13.60;99.90;;;;;;5045387;28;20029;-47
2021/08/29 02:52:42;;;;;;;4.32;2.47;;;13.70;99.90;;;;;;5051184;28;20025;-52
2021/08/29 02:55:08;;;;;;;3.00;2.70;;;13.60;99.90;;;;;;5043859;28;20021;-48
2021/08/29 02:57:36;;;;;;;3.60;2.40;;;13.60;99.90;;;;;;5049836;28;20052;-47
2021/08/29 03:00:02;;;;;;;3.42;2.33;;;13.60;99.90;;;;;;5050118;28;20025;-50
2021/08/29 03:02:28;;;;;;;2.42;2.20;;;13.70;99.90;;;;;;5048032;28;20021;-48
2021/08/29 03:04:53;;;;;;;2.15;1.73;;;13.70;99.90;;;;;;5051052;28;20077;-46
2021/08/29 03:07:19;;;;;;;2.78;2.58;;;13.70;99.90;;;;;;5044799;28;20021;-46
2021/08/29 03:09:45;;;;;;;4.10;2.40;;;13.60;99.90;;;;;;5051600;28;20031;-49
2021/08/29 03:12:11;;;;;;;2.53;1.98;;;13.60;99.90;;;;;;5043615;28;20017;-47
2021/08/29 03:14:40;;;;;;;2.80;2.47;;;13.70;99.90;;;;;;5050153;28;20104;-50
2021/08/29 03:17:06;;;;;;;1.95;1.75;;;13.70;99.90;;;;;;5048598;28;20151;-50
2021/08/29 03:19:33;;;;;;;3.22;2.00;;;13.70;99.90;;;;;;5047880;28;20028;-45
2021/08/29 03:21:59;;;;;;;2.38;2.17;;;13.70;99.90;;;;;;5050446;28;20035;-46
2021/08/29 03:24:25;;;;;;;2.95;2.25;;;13.70;99.90;;;;;;5044082;28;20025;-48
2021/08/29 03:26:50;;;;;;;3.47;2.20;;;13.70;99.90;;;;;;5048332;28;20094;-48
2021/08/29 03:29:17;;;;;;;3.05;2.28;;;13.70;99.90;;;;;;5044053;28;20404;-47
2021/08/29 03:31:42;;;;;;;2.55;1.70;;;13.70;99.90;;;;;;5048113;28;20027;-50
2021/08/29 03:34:11;;;;;;;2.85;2.10;;;13.70;99.90;;;;;;5048392;28;20179;-49
2021/08/29 03:36:37;;;;;;;3.67;2.58;;;13.70;99.90;;;;;;5045283;28;20039;-47
2021/08/29 03:39:03;;;;;;;2.40;2.15;;;13.70;99.90;;;;;;5048886;28;20021;-46
2021/08/29 03:41:30;;;;;;;4.90;2.40;;;13.70;99.90;;;;;;5041517;28;20483;-45
2021/08/29 03:43:56;;;;;;;4.00;2.28;;;13.70;99.90;;;;;;5049780;28;20030;-47
2021/08/29 03:46:22;;;;;;;2.75;2.45;;;13.70;99.90;;;;;;5046627;28;20036;-46
2021/08/29 03:48:49;;;;;;;3.97;2.88;;;13.70;99.90;;;;;;5039989;28;20021;-49
2021/08/29 03:51:17;;;;;;;3.47;2.67;;;13.70;99.90;;;;;;5047356;28;20053;-46
2021/08/29 03:53:43;;;;;;;3.80;2.65;;;13.70;99.90;;;;;;5046051;28;20028;-52
2021/08/29 03:56:13;;;;;;;3.13;2.58;;;13.70;99.90;;;;;;5047484;28;20021;-46
2021/08/29 03:58:42;;;;;;;3.83;2.20;;;13.70;99.90;;;;;;5043919;28;20501;-48
2021/08/29 04:01:08;;;;;;;4.53;2.50;;;13.70;99.90;;;;;;5049487;28;20021;-46
2021/08/29 04:03:34;;;;;;;3.10;2.78;;;13.70;99.90;;;;;;5045451;28;20025;-46
2021/08/29 04:06:02;;;;;;;4.70;3.28;;;13.70;99.90;;;;;;5048055;28;20415;-48
2021/08/29 04:08:30;;;;;;;3.90;3.13;;;13.70;99.90;;;;;;5045543;28;20021;-45
2021/08/29 04:11:01;;;;;;;3.75;2.92;;;13.70;99.90;;;;;;5040797;28;20379;-47
2021/08/29 04:13:29;;;;;;;3.75;3.28;;;13.70;99.90;;;;;;5045241;28;20117;-50
2021/08/29 04:15:55;;;;;;;2.60;2.40;;;13.70;99.90;;;;;;5045111;28;20534;-50
2021/08/29 04:18:22;;;;;;;2.67;2.42;;;13.70;99.90;;;;;;5033406;28;20314;-46
2021/08/29 04:20:49;;;;;;;3.33;2.40;;;13.70;99.90;;;;;;5045583;28;20506;-47
2021/08/29 04:23:14;;;;;;;2.75;2.55;;;13.70;99.90;;;;;;5046450;28;20028;-46
2021/08/29 04:25:40;;;;;;;3.10;2.80;;;13.70;99.90;;;;;;5045937;28;20017;-46
2021/08/29 04:28:06;;;;;;;3.03;2.72;;;13.70;99.90;;;;;;5044818;28;20104;-51
2021/08/29 04:30:33;;;;;;;3.05;2.85;;;13.70;99.90;;;;;;5045668;28;20028;-49
2021/08/29 04:32:58;;;;;;;2.78;2.30;;;13.70;99.90;;;;;;5047727;28;20036;-46
2021/08/29 04:35:24;;;;;;;2.60;2.40;;;13.70;99.90;;;;;;5043021;28;20029;-48
2021/08/29 04:37:51;;;;;;;3.35;2.10;;;13.70;99.90;;;;;;5046800;28;20090;-46
2021/08/29 04:40:16;;;;;;;2.72;2.42;;;13.70;99.90;;;;;;5041960;28;20025;-47
2021/08/29 04:42:42;;;;;;;5.28;2.50;;;13.70;99.90;;;;;;5045391;28;20096;-45
2021/08/29 04:45:08;;;;;;;2.53;2.33;;;13.70;99.90;;;;;;5047820;28;20025;-49
2021/08/29 04:47:34;;;;;;;3.47;2.40;;;13.70;99.90;;;;;;5045382;28;20049;-47
2021/08/29 04:49:59;;;;;;;3.78;2.35;;;13.70;99.90;;;;;;5047542;28;20059;-47
2021/08/29 04:52:25;;;;;;;2.85;2.25;;;13.80;99.90;;;;;;5044158;28;20024;-48
2021/08/29 04:54:50;;;;;;;2.58;2.38;;;13.80;99.90;;;;;;5045160;28;20025;-48
2021/08/29 04:57:16;;;;;;;2.08;1.90;;;13.80;99.90;;;;;;5042883;28;20675;-50
2021/08/29 04:59:41;;;;;;;2.70;2.40;;;13.80;99.90;;;;;;5044450;28;20020;-46
2021/08/29 05:02:07;;;;;;;2.42;2.22;;;13.80;99.90;;;;;;5047934;28;20024;-49
2021/08/29 05:04:32;;;;;;;2.35;2.15;;;13.80;99.90;;;;;;5044294;28;20044;-49
2021/08/29 05:06:58;;;;;;;2.50;2.13;;;13.80;99.90;;;;;;5047051;28;20053;-45
2021/08/29 05:09:23;;;;;;;8.70;2.50;;;13.80;99.90;;;;;;5044024;28;20021;-46
2021/08/29 05:11:49;;;;;;;2.80;2.47;;;13.80;99.90;;;;;;5046014;28;20017;-46
2021/08/29 05:14:14;;;;;;;2.78;2.50;;;13.80;99.90;;;;;;5041539;28;20025;-49
2021/08/29 05:16:40;;;;;;;3.05;2.70;;;13.80;99.90;;;;;;5044807;28;20048;-48
2021/08/29 05:19:06;;;;;;;3.10;2.40;;;13.80;99.90;;;;;;5043336;28;20021;-49
2021/08/29 05:21:31;;;;;;;4.55;3.05;;;13.80;99.90;;;;;;5044767;28;20045;-49
2021/08/29 05:23:57;;;;;;;3.17;2.38;;;13.80;99.90;;;;;;5046424;28;20021;-50
2021/08/29 05:26:22;;;;;;;3.15;2.17;;;13.80;99.90;;;;;;5045087;28;20479;-45
2021/08/29 05:28:48;;;;;;;2.63;2.33;;;13.80;99.90;;;;;;5043933;28;20099;-46
2021/08/29 05:31:13;;;;;;;3.58;2.58;;;13.90;99.90;;;;;;5043292;28;20025;-46
2021/08/29 05:33:39;;;;;;;2.75;2.42;;;13.80;99.90;;;;;;5048233;28;20025;-48
2021/08/29 05:36:05;;;;;;;2.58;2.20;;;13.90;99.90;;;;;;5041600;28;20021;-50
2021/08/29 05:38:30;;;;;;;2.90;2.70;;;13.90;99.90;;;;;;5047242;28;20017;-47
2021/08/29 05:40:56;;;;;;;3.40;2.33;;;14.00;99.90;;;;;;5042418;28;20075;-48
2021/08/29 05:43:21;;;;;;;2.60;2.40;;;13.90;99.90;;;;;;5044636;28;20032;-48
2021/08/29 05:45:47;;;;;;;4.47;2.90;;;14.00;99.90;;;;;;5047808;28;20021;-45
2021/08/29 05:48:12;;;;;;;2.97;2.33;;;14.00;99.90;;;;;;5041683;28;20052;-45
2021/08/29 05:50:38;;;;;;;2.20;2.00;;;13.90;99.90;;;;;;5048351;28;20028;-48
2021/08/29 05:53:03;;;;;;;2.72;2.45;;;14.00;99.90;;;;;;5041239;28;20499;-47
2021/08/29 05:55:29;;;;;;;3.00;2.30;;;14.00;99.90;;;;;;5050557;28;20024;-46
2021/08/29 05:57:54;;;;;;;3.47;2.80;;;14.00;99.90;;;;;;5046762;28;20444;-48
2021/08/29 06:00:20;;;;;;;2.60;2.40;;;14.00;99.90;;;;;;5044481;28;20033;-47
2021/08/29 06:02:46;;;;;;;2.58;2.38;;;14.10;99.90;;;;;;5052036;28;20387;-49
2021/08/29 06:05:11;;;;;;;2.63;2.35;;;14.10;99.90;;;;;;5046292;28;20059;-47
2021/08/29 06:07:37;;;;;;;3.55;2.30;;;14.10;99.90;;;;;;5051831;28;20049;-48
2021/08/29 06:10:03;;;;;;;2.85;2.65;;;14.20;99.90;;;;;;5046173;28;20028;-50
2021/08/29 06:12:29;;;;;;;5.20;3.40;;;14.20;99.90;;;;;;5051124;28;20128;-48
2021/08/29 06:14:54;;;;;;;3.40;2.53;;;14.20;99.90;;;;;;5046320;28;20109;-50
2021/08/29 06:17:20;;;;;;;3.55;3.25;;;14.20;99.90;;;;;;5045090;28;20724;-47
2021/08/29 06:19:45;;;;;;;3.00;2.70;;;14.20;99.90;;;;;;5051963;28;20156;-49
2021/08/29 06:22:11;;;;;;;5.50;2.60;;;14.20;99.90;;;;;;5046460;28;20021;-49
2021/08/29 06:24:36;;;;;;;3.95;3.55;;;14.20;99.90;;;;;;5048441;28;20033;-47
2021/08/29 06:27:02;;;;;;;6.40;3.05;;;14.20;99.90;;;;;;5051031;28;20028;-47
2021/08/29 06:29:28;;;;;;;3.83;3.00;;;14.20;99.90;;;;;;5044212;28;20028;-47
2021/08/29 06:31:54;;;;;;;3.20;2.90;;;14.20;99.90;;;;;;5049993;28;20535;-49
2021/08/29 06:34:20;;;;;;;3.88;3.00;;;14.30;99.90;;;;;;5033947;28;20010;-49
2021/08/29 06:36:46;;;;;;;3.22;2.92;;;14.30;99.90;;;;;;5047584;28;20028;-48
2021/08/29 06:39:12;;;;;;;3.53;2.88;;;14.30;99.90;;;;;;5049007;28;20480;-50
2021/08/29 06:41:37;;;;;;;5.07;2.70;;;14.30;99.90;;;;;;5044142;28;20033;-52
2021/08/29 06:44:03;;;;;;;2.47;2.28;;;14.40;99.90;;;;;;5050814;28;20028;-50
2021/08/29 06:46:28;;;;;;;2.53;2.33;;;14.40;99.90;;;;;;5045967;28;20020;-49
2021/08/29 06:48:54;;;;;;;2.83;2.63;;;14.40;99.90;;;;;;5050262;28;20039;-49
2021/08/29 06:51:20;;;;;;;2.78;2.50;;;14.40;99.90;;;;;;5048411;28;20505;-50
2021/08/29 06:53:45;;;;;;;3.05;2.15;;;14.50;99.90;;;;;;5047891;28;20439;-47
2021/08/29 06:56:11;;;;;;;2.53;2.30;;;14.50;99.90;;;;;;5048520;28;20033;-47
2021/08/29 06:58:36;;;;;;;1.90;1.58;;;14.60;99.90;;;;;;5044657;28;20039;-51
2021/08/29 07:01:02;;;;;;;2.03;1.92;;;14.60;99.90;;;;;;5049493;28;20021;-47
2021/08/29 07:03:27;;;;;;;1.70;1.60;;;14.60;99.90;;;;;;5047189;28;20028;-47
2021/08/29 07:05:53;;;;;;;2.58;1.80;;;14.60;99.90;;;;;;5049253;28;20016;-49
2021/08/29 07:08:18;;;;;;;2.13;2.00;;;14.60;99.90;;;;;;5047825;28;20033;-49
2021/08/29 07:10:44;;;;;;;3.55;2.05;;;14.60;99.90;;;;;;5047583;28;20025;-48
2021/08/29 07:13:09;;;;;;;2.38;1.85;;;14.60;99.90;;;;;;5048906;28;20077;-54
2021/08/29 07:15:35;;;;;;;1.50;1.40;;;14.70;99.90;;;;;;5043744;28;20030;-47
2021/08/29 07:18:00;;;;;;;1.60;1.50;;;14.60;99.90;;;;;;5048757;28;20024;-50
2021/08/29 07:20:26;;;;;;;1.60;1.50;;;14.70;99.90;;;;;;5046747;28;20143;-50
2021/08/29 07:22:51;;;;;;;1.40;1.30;;;14.70;99.90;;;;;;5031579;28;20218;-53
2021/08/29 07:25:17;;;;;;;1.42;1.33;;;14.70;99.90;;;;;;5047341;28;20017;-50
2021/08/29 07:27:43;;;;;;;1.30;1.20;;;14.80;99.90;;;;;;5046556;28;20020;-50
2021/08/29 07:30:09;;;;;;;2.97;1.30;;;14.80;99.90;;;;;;5046801;28;20096;-51
2021/08/29 07:32:34;;;;;;;1.45;1.20;;;14.90;99.90;;;;;;5049336;28;20032;-48
2021/08/29 07:35:00;;;;;;;1.52;0.93;;;14.90;99.90;;;;;;5045284;28;20024;-50
2021/08/29 07:37:25;;;;;;;1.05;0.98;;;15.00;99.90;;;;;;5047893;28;20025;-50
2021/08/29 07:39:51;;;;;;;1.33;1.13;;;15.00;99.90;;;;;;5044756;28;20101;-47
2021/08/29 07:42:17;;;;;;;2.50;1.10;;;15.00;99.90;;;;;;5047530;28;20552;-52
2021/08/29 07:44:42;;;;;;;1.23;0.90;;;15.10;99.90;;;;;;5048253;28;20668;-51
2021/08/29 07:47:08;;;;;;;0.95;0.95;;;15.10;99.90;;;;;;5046070;28;20395;-53
2021/08/29 07:49:33;;;;;;;1.75;0.88;;;15.10;99.90;;;;;;5048937;28;20021;-50
2021/08/29 07:51:59;;;;;;;1.05;0.93;;;15.20;99.90;;;;;;5045648;28;20495;-50
2021/08/29 07:54:24;;;;;;;0.80;0.80;;;15.20;99.90;;;;;;5046688;28;20032;-48
2021/08/29 07:56:50;;;;;;;2.20;0.75;;;15.20;99.90;;;;;;5044746;28;20101;-52
2021/08/29 07:59:15;;;;;;;0.98;0.70;;;15.30;99.90;;;;;;5046887;28;20028;-49
2021/08/29 08:01:41;;;;;;;1.50;0.85;;;15.30;99.90;;;;;;5046999;28;20032;-54
2021/08/29 08:04:07;;;;;;;1.35;0.95;;;15.30;99.90;;;;;;5043257;28;20445;-49
2021/08/29 08:06:32;;;;;;;1.00;1.00;;;15.30;99.90;;;;;;5033128;28;20514;-48
2021/08/29 08:08:59;;;;;;;2.65;0.80;;;15.40;99.90;;;;;;5038848;28;20388;-51
2021/08/29 08:11:24;;;;;;;0.75;0.75;;;15.40;99.90;;;;;;5035469;28;20064;-52
2021/08/29 08:13:50;;;;;;;1.30;0.85;;;15.50;99.90;;;;;;5041804;28;20056;-52
2021/08/29 08:16:15;;;;;;;0.82;0.82;;;15.70;99.90;;;;;;5038761;28;20080;-45
2021/08/29 08:18:41;;;;;;;2.70;1.20;;;15.70;99.90;;;;;;5035370;28;20032;-50
2021/08/29 08:21:07;;;;;;;0.93;0.70;;;15.80;99.90;;;;;;5038848;28;20021;-50
2021/08/29 08:23:32;;;;;;;0.93;0.82;;;15.80;99.90;;;;;;5040066;28;20052;-45
2021/08/29 08:25:58;;;;;;;0.50;0.50;;;15.80;99.90;;;;;;5046048;28;20025;-48
2021/08/29 08:28:23;;;;;;;1.10;0.65;;;15.80;99.90;;;;;;5030816;28;20028;-45
2021/08/29 08:30:50;;;;;;;0.60;0.60;;;15.80;99.90;;;;;;5046067;28;20029;-49
2021/08/29 08:33:15;;;;;;;1.13;0.50;;;15.90;99.90;;;;;;5048129;28;20059;-46
2021/08/29 08:35:41;;;;;;;0.68;0.68;;;15.90;99.90;;;;;;5042962;28;20017;-50
2021/08/29 08:38:06;;;;;;;0.50;0.50;;;15.90;99.90;;;;;;5046669;28;20104;-52
2021/08/29 08:40:40;;;;;;;0.47;0.47;;;15.90;99.90;;;;;;5044333;28;20021;-47
2021/08/29 08:43:06;;;;;;;1.77;0.50;;;16.00;99.90;;;;;;5045974;28;20014;-52
2021/08/29 08:45:34;;;;;;;0.60;0.60;;;16.00;99.90;;;;;;5047546;28;20025;-51
2021/08/29 08:48:01;;;;;;;0.57;0.57;;;16.10;99.90;;;;;;5044426;28;20035;-46
2021/08/29 08:50:28;;;;;;;1.85;0.77;;;16.10;99.90;;;;;;5049040;28;20020;-49
2021/08/29 08:52:59;;;;;;;0.77;0.77;;;16.10;99.90;;;;;;5044381;28;20434;-47
2021/08/29 08:55:25;;;;;;;1.15;1.00;;;16.20;99.90;;;;;;5045867;28;20083;-47
2021/08/29 08:57:52;;;;;;;1.80;0.88;;;16.20;99.90;;;;;;5043604;28;20029;-46
2021/08/29 09:00:18;;;;;;;10.00;1.70;;;16.30;99.90;;;;;;5044935;28;20021;-50
2021/08/29 09:02:45;;;;;;;2.70;1.02;;;16.30;99.90;;;;;;5048939;28;20079;-50
2021/08/29 09:05:11;;;;;;;1.13;0.88;;;16.40;99.90;;;;;;5043102;28;20367;-49
2021/08/29 09:07:36;;;;;;;1.48;1.17;;;16.40;99.90;;;;;;5048524;28;20078;-51
2021/08/29 09:10:03;;;;;;;0.80;0.80;;;16.40;99.90;;;;;;5043103;28;20025;-52
2021/08/29 09:12:29;;;;;;;0.77;0.77;;;16.40;99.90;;;;;;5047369;28;20563;-48
2021/08/29 09:14:57;;;;;;;1.08;0.98;;;16.40;99.90;;;;;;5042583;28;20119;-52
2021/08/29 09:17:27;;;;;;;1.05;0.93;;;16.40;99.90;;;;;;5042745;28;20447;-48
2021/08/29 09:20:13;;;;;;;1.08;0.90;;;16.30;99.90;;;;;;5045041;28;20017;-45
2021/08/29 09:22:40;;;;;;;1.00;1.00;;;16.40;99.90;;;;;;5044315;28;20035;-45
2021/08/29 09:25:11;;;;;;;1.48;1.08;;;16.40;99.90;;;;;;5044975;28;20013;-48
2021/08/29 09:27:49;;;;;;;1.30;1.10;;;16.50;99.90;;;;;;5044880;28;20025;-48
2021/08/29 09:30:15;;;;;;;1.10;1.10;;;16.50;99.90;;;;;;5043104;28;20029;-48
2021/08/29 09:32:50;;;;;;;1.42;1.33;;;16.50;99.90;;;;;;5047470;28;20028;-50
2021/08/29 09:35:16;;;;;;;1.50;1.40;;;16.50;99.90;;;;;;5040843;28;20056;-49
2021/08/29 09:37:42;;;;;;;1.50;1.40;;;16.60;99.90;;;;;;5045810;28;20471;-45
2021/08/29 09:40:13;;;;;;;2.83;1.52;;;16.60;99.90;;;;;;5042836;28;20060;-50
2021/08/29 09:42:43;;;;;;;1.42;1.33;;;16.70;99.90;;;;;;5045617;28;20043;-51
2021/08/29 09:45:18;;;;;;;1.05;1.02;;;16.60;99.90;;;;;;5047139;28;20092;-51
2021/08/29 09:47:43;;;;;;;2.00;1.20;;;16.70;99.90;;;;;;5044601;28;20493;-51
2021/08/29 09:50:09;;;;;;;1.55;1.45;;;16.70;99.90;;;;;;5046113;28;20096;-48
2021/08/29 09:52:35;;;;;;;1.55;1.45;;;16.70;99.90;;;;;;5042258;28;20028;-51
2021/08/29 09:55:00;;;;;;;1.60;1.38;;;16.70;99.90;;;;;;5045668;28;20388;-47
2021/08/29 09:57:26;;;;;;;3.67;1.77;;;16.70;99.90;;;;;;5042653;28;20017;-45
2021/08/29 09:59:52;;;;;;;4.85;1.90;;;16.70;99.90;;;;;;5043829;28;20043;-52
2021/08/29 10:02:26;;;;;;;2.95;1.70;;;16.70;99.90;;;;;;5047327;28;20099;-48
2021/08/29 10:05:11;;;;;;;2.55;1.50;;;16.70;99.90;;;;;;5042899;28;20056;-50
2021/08/29 10:07:37;;;;;;;5.78;2.05;;;16.80;99.90;;;;;;5042404;28;20025;-47
2021/08/29 10:10:21;;;;;;;5.47;1.95;;;16.80;99.90;;;;;;5038308;28;20076;-48
2021/08/29 10:12:48;;;;;;;3.88;1.83;;;16.80;99.90;;;;;;5040679;28;20410;-53
2021/08/29 10:15:16;;;;;;;2.88;2.22;;;16.80;99.90;;;;;;5037526;28;20037;-53
2021/08/29 10:17:44;;;;;;;1.98;1.77;;;16.90;99.90;;;;;;5036354;28;20022;-50
2021/08/29 10:20:15;;;;;;;3.35;2.42;;;16.90;99.90;;;;;;5038754;28;20014;-49
2021/08/29 10:22:42;;;;;;;4.13;1.90;;;17.00;99.90;;;;;;5038232;28;20052;-49
2021/08/29 10:25:12;;;;;;;2.85;2.50;;;17.00;99.90;;;;;;5044926;28;20021;-49
2021/08/29 10:27:40;;;;;;;5.15;2.42;;;17.00;99.90;;;;;;5044590;28;20100;-52
2021/08/29 10:30:09;;;;;;;2.80;2.28;;;17.00;99.90;;;;;;5040298;28;20021;-49
2021/08/29 10:32:44;;;;;;;2.55;2.22;;;16.90;99.90;;;;;;5046921;28;20676;-53
2021/08/29 10:35:11;;;;;;;2.53;2.33;;;16.80;99.90;;;;;;5042956;28;20488;-47
2021/08/29 10:37:38;;;;;;;6.30;2.40;;;16.80;99.90;;;;;;5043938;28;20036;-48
2021/08/29 10:40:05;;;;;;;10.68;3.05;;;16.80;99.90;;;;;;5040677;28;20108;-51
2021/08/29 10:42:34;;;;;;;3.53;2.80;;;16.80;99.90;;;;;;5048566;28;20394;-51
2021/08/29 10:44:59;;;;;;;3.67;2.70;;;16.80;99.90;;;;;;5050389;28;20074;-48
2021/08/29 10:47:25;;;;;;;3.22;2.92;;;16.80;99.90;;;;;;5047573;28;20033;-52
2021/08/29 10:49:51;;;;;;;4.30;3.35;;;16.80;99.90;;;;;;5049862;28;20021;-49
2021/08/29 10:52:17;;;;;;;3.45;2.92;;;16.80;99.90;;;;;;5046141;28;20017;-48
2021/08/29 10:54:56;;;;;;;4.15;3.35;;;16.80;99.90;;;;;;5048884;28;20544;-51
2021/08/29 10:57:38;;;;;;;4.75;3.70;;;16.90;99.90;;;;;;5045681;28;20555;-49
2021/08/29 11:00:13;;;;;;;4.63;3.22;;;16.90;99.90;;;;;;5047184;28;20045;-50
2021/08/29 11:02:50;;;;;;;3.85;3.42;;;16.90;99.90;;;;;;5051205;28;20285;-49
2021/08/29 11:05:35;;;;;;;4.28;3.40;;;17.00;99.90;;;;;;5045378;28;20104;-53
2021/08/29 11:08:30;;;;;;;5.35;3.75;;;16.90;99.90;;;;;;5045948;28;20060;-49
2021/08/29 11:10:57;;;;;;;4.43;3.05;;;16.90;99.90;;;;;;5042655;28;20550;-46
2021/08/29 11:13:32;;;;;;;4.05;2.80;;;17.00;99.90;;;;;;5047510;28;20146;-48
2021/08/29 11:16:12;;;;;;;4.63;3.00;;;17.00;99.90;;;;;;5047006;28;20431;-48
2021/08/29 11:19:00;;;;;;;3.97;3.42;;;16.90;99.90;;;;;;5050200;28;20110;-51
2021/08/29 11:21:26;;;;;;;6.70;3.70;;;17.00;99.90;;;;;;5047018;28;20053;-50
2021/08/29 11:23:52;;;;;;;4.50;4.10;;;17.00;99.90;;;;;;5049494;28;20241;-47
2021/08/29 11:26:31;;;;;;;7.13;3.78;;;16.90;99.90;;;;;;5046912;28;20100;-47
2021/08/29 11:28:57;;;;;;;5.18;3.80;;;16.90;99.90;;;;;;5046562;28;20776;-45
2021/08/29 11:31:51;;;;;;;4.10;3.70;;;16.90;99.90;;;;;;5045805;28;20021;-46
2021/08/29 11:34:17;;;;;;;4.32;3.50;;;16.90;99.90;;;;;;5047794;28;20029;-50
2021/08/29 11:36:44;;;;;;;4.80;4.20;;;16.90;99.90;;;;;;5046433;28;20086;-47
2021/08/29 11:39:31;;;;;;;4.65;3.22;;;16.80;99.90;;;;;;5048448;28;20017;-46
2021/08/29 11:42:17;;;;;;;4.63;4.22;;;16.80;99.90;;;;;;5045642;28;20154;-50
2021/08/29 11:44:44;;;;;;;6.35;4.28;;;16.80;99.90;;;;;;5049670;28;20017;-48
2021/08/29 11:47:10;;;;;;;4.38;3.97;;;16.80;99.90;;;;;;5046491;28;20025;-46
2021/08/29 11:49:38;;;;;;;5.75;4.68;;;16.90;99.90;;;;;;5047188;28;20017;-45
2021/08/29 11:52:04;;;;;;;4.55;4.13;;;16.90;99.90;;;;;;5045409;28;20100;-48
2021/08/29 11:54:30;;;;;;;5.22;4.13;;;16.90;99.90;;;;;;5046402;28;20084;-47
2021/08/29 11:56:56;;;;;;;3.97;3.60;;;16.90;99.90;;;;;;5043037;28;20056;-53
2021/08/29 11:59:33;;;;;;;5.15;3.80;;;16.90;99.90;;;;;;5045446;28;20063;-51
2021/08/29 12:02:00;;;;;;;4.45;4.05;;;16.90;99.90;;;;;;5040272;28;20017;-51
2021/08/29 12:04:26;;;;;;;4.78;4.38;;;16.80;99.90;;;;;;5041653;28;20039;-47
2021/08/29 12:07:04;;;;;;;6.82;4.10;;;16.80;99.90;;;;;;5040540;28;20092;-48
2021/08/29 12:09:42;;;;;;;5.20;3.67;;;16.90;99.90;;;;;;5039526;28;20024;-48
2021/08/29 12:12:18;;;;;;;4.85;4.35;;;16.90;99.90;;;;;;5041174;28;20025;-54
2021/08/29 12:14:44;;;;;;;6.00;4.57;;;17.00;99.90;;;;;;5041684;28;20496;-50
2021/08/29 12:17:13;;;;;;;4.45;4.05;;;17.00;99.90;;;;;;5038801;28;20029;-50
2021/08/29 12:19:40;;;;;;;6.90;5.25;;;17.10;99.90;;;;;;5041820;28;20021;-50
2021/08/29 12:22:09;;;;;;;5.28;4.43;;;17.10;99.90;;;;;;5036192;28;20104;-50
2021/08/29 12:24:40;;;;;;;4.25;3.85;;;17.00;99.90;;;;;;5042580;28;20029;-54
2021/08/29 12:27:11;;;;;;;4.93;4.25;;;17.00;99.90;;;;;;5048866;28;20017;-53
2021/08/29 12:29:52;;;;;;;4.25;3.85;;;17.00;99.90;;;;;;5041931;28;20541;-52
2021/08/29 12:32:26;;;;;;;4.45;3.70;;;17.00;99.90;;;;;;5048108;28;20032;-49
2021/08/29 12:34:59;;;;;;;6.25;4.40;;;17.10;99.90;;;;;;5043297;28;20017;-54
2021/08/29 12:37:26;;;;;;;4.88;4.18;;;17.10;99.90;;;;;;5009520;28;20053;-52
2021/08/29 12:40:13;;;;;;;8.00;4.60;;;17.00;99.90;;;;;;5044123;28;20434;-53
2021/08/29 12:42:40;;;;;;;7.43;4.75;;;17.00;99.90;;;;;;5038714;28;20443;-53
2021/08/29 12:45:12;;;;;;;5.43;4.90;;;17.00;99.90;;;;;;5048305;28;20033;-52
2021/08/29 12:47:42;;;;;;;6.50;4.97;;;16.90;99.90;;;;;;5045336;28;20033;-49
2021/08/29 12:50:12;;;;;;;7.15;5.18;;;16.90;99.90;;;;;;5047391;28;20499;-49